createdAt,value
2023-01-17T00:02:28.239Z,47.20
2023-01-17T00:05:15.636Z,42.67
2023-01-17T00:08:02.088Z,46.07
2023-01-17T00:10:32.808Z,43.47
2023-01-17T00:13:06.646Z,33.87
2023-01-17T00:15:34.568Z,34.83
2023-01-17T00:18:01.928Z,23.73
2023-01-17T00:20:53.347Z,38.07
2023-01-17T00:23:41.972Z,32.63
2023-01-17T00:26:34.629Z,25.20
2023-01-17T00:29:01.726Z,29.33
2023-01-17T00:31:30.434Z,32.37
2023-01-17T00:34:00.488Z,30.80
2023-01-17T00:36:31.644Z,35.87
2023-01-17T00:39:00.884Z,33.63
2023-01-17T00:41:29.483Z,29.43
2023-01-17T00:44:15.357Z,29.83
2023-01-17T00:47:04.779Z,28.17
2023-01-17T00:49:55.100Z,27.23
2023-01-17T00:52:43.037Z,27.93
2023-01-17T00:55:31.147Z,27.07
2023-01-17T00:58:18.828Z,32.33
2023-01-17T01:01:07.089Z,28.77
2023-01-17T01:03:56.885Z,27.53
2023-01-17T01:07:21.249Z,30.20
2023-01-17T01:10:07.819Z,31.17
2023-01-17T01:12:56.100Z,28.67
2023-01-17T01:15:44.182Z,31.97
2023-01-17T01:18:33.490Z,27.10
2023-01-17T01:21:27.180Z,27.60
2023-01-17T01:24:16.665Z,20.47
2023-01-17T01:27:04.070Z,23.60
2023-01-17T01:29:51.035Z,26.10
2023-01-17T01:32:37.972Z,27.77
2023-01-17T01:35:13.965Z,23.33
2023-01-17T01:37:49.905Z,14.97
2023-01-17T01:40:18.812Z,19.90
2023-01-17T01:42:58.536Z,25.20
2023-01-17T01:45:30.475Z,22.77
2023-01-17T01:48:07.315Z,21.90
2023-01-17T01:50:38.286Z,24.47
2023-01-17T01:53:09.803Z,21.73
2023-01-17T01:55:55.920Z,20.13
2023-01-17T01:58:28.112Z,19.70
2023-01-17T02:00:56.935Z,21.30
2023-01-17T02:03:28.508Z,20.77
2023-01-17T02:06:05.645Z,28.13
2023-01-17T02:08:35.406Z,31.03
2023-01-17T02:11:03.636Z,25.40
2023-01-17T02:13:32.340Z,27.37
2023-01-17T02:16:49.340Z,28.87
2023-01-17T02:19:50.775Z,26.70
2023-01-17T02:22:55.584Z,26.40
2023-01-17T02:25:52.184Z,28.67
2023-01-17T02:28:42.295Z,26.20
2023-01-17T02:31:18.813Z,28.40
2023-01-17T02:34:03.100Z,29.10
2023-01-17T02:36:58.494Z,27.63
2023-01-17T02:40:02.926Z,25.93
2023-01-17T02:42:50.123Z,23.13
2023-01-17T02:45:20.291Z,24.87
2023-01-17T02:47:55.475Z,22.93
2023-01-17T02:50:38.015Z,22.37
2023-01-17T02:53:46.535Z,24.73
2023-01-17T02:56:39.893Z,18.67
2023-01-17T02:59:26.591Z,21.17
2023-01-17T03:02:40.068Z,23.30
2023-01-17T03:05:48.124Z,26.73
2023-01-17T03:08:25.763Z,23.30
2023-01-17T03:10:58.923Z,23.57
2023-01-17T03:13:33.796Z,23.83
2023-01-17T03:16:01.486Z,22.83
2023-01-17T03:18:37.825Z,25.17
2023-01-17T03:21:08.800Z,23.83
2023-01-17T03:23:38.394Z,23.27
2023-01-17T03:26:06.123Z,25.43
2023-01-17T03:28:35.375Z,26.43
2023-01-17T03:31:05.031Z,18.57
2023-01-17T03:33:35.562Z,27.30
2023-01-17T03:36:05.830Z,27.33
2023-01-17T03:38:41.900Z,25.73
2023-01-17T03:41:19.019Z,26.60
2023-01-17T03:43:48.604Z,21.57
2023-01-17T03:46:30.961Z,25.70
2023-01-17T03:49:01.348Z,28.93
2023-01-17T03:51:32.149Z,18.73
2023-01-17T03:54:00.787Z,25.50
2023-01-17T03:56:29.247Z,26.87
2023-01-17T03:59:06.273Z,24.23
2023-01-17T04:01:34.911Z,24.80
2023-01-17T04:04:05.809Z,24.43
2023-01-17T04:06:34.868Z,25.17
2023-01-17T04:09:03.416Z,21.13
2023-01-17T04:11:33.831Z,16.70
2023-01-17T04:14:03.671Z,17.77
2023-01-17T04:16:32.936Z,16.07
2023-01-17T04:19:11.635Z,13.33
2023-01-17T04:21:42.886Z,17.60
2023-01-17T04:24:12.646Z,22.27
2023-01-17T04:26:40.865Z,18.70
2023-01-17T04:29:13.376Z,38.53
2023-01-17T04:31:44.602Z,44.80
2023-01-17T04:34:14.703Z,28.57
2023-01-17T04:36:44.246Z,20.70
2023-01-17T04:39:14.163Z,128.07
2023-01-17T04:41:45.162Z,38.23
2023-01-17T04:44:13.865Z,65.53
2023-01-17T04:46:43.629Z,134.50
2023-01-17T04:49:13.007Z,46.03
2023-01-17T04:51:43.223Z,125.23
2023-01-17T04:54:13.880Z,87.97
2023-01-17T04:56:42.670Z,88.83
2023-01-17T04:59:09.979Z,60.43
2023-01-17T05:01:47.021Z,70.93
2023-01-17T05:07:02.421Z,23.57
2023-01-17T05:09:34.900Z,21.50
2023-01-17T05:12:04.506Z,23.50
2023-01-17T05:14:35.319Z,36.73
2023-01-17T05:17:03.892Z,30.30
2023-01-17T05:19:32.342Z,37.03
2023-01-17T05:22:04.423Z,28.63
2023-01-17T05:24:44.427Z,48.00
2023-01-17T05:27:15.907Z,26.30
2023-01-17T05:29:44.337Z,74.03
2023-01-17T05:32:12.665Z,34.67
2023-01-17T05:34:39.675Z,43.57
2023-01-17T05:37:08.969Z,42.93
2023-01-17T05:39:36.971Z,29.97
2023-01-17T05:42:09.614Z,36.20
2023-01-17T05:44:40.940Z,110.80
2023-01-17T05:47:09.725Z,46.33
2023-01-17T05:49:36.985Z,93.00
2023-01-17T05:52:05.742Z,34.27
2023-01-17T05:54:42.210Z,35.00
2023-01-17T05:57:14.133Z,59.23
2023-01-17T05:59:41.895Z,162.10
2023-01-17T06:02:09.065Z,55.17
2023-01-17T06:04:37.994Z,58.90
2023-01-17T06:07:06.230Z,32.10
2023-01-17T06:09:33.199Z,126.50
2023-01-17T06:12:01.528Z,49.67
2023-01-17T06:14:31.764Z,33.47
2023-01-17T06:16:59.105Z,43.10
2023-01-17T06:19:26.300Z,114.53
2023-01-17T06:21:54.663Z,149.20
2023-01-17T06:24:23.245Z,78.23
2023-01-17T06:26:50.522Z,40.00
2023-01-17T06:29:20.194Z,30.93
2023-01-17T06:31:48.591Z,35.10
2023-01-17T06:34:35.482Z,34.83
2023-01-17T06:37:04.326Z,49.53
2023-01-17T06:39:34.322Z,48.13
2023-01-17T06:42:02.740Z,54.40
2023-01-17T06:44:35.139Z,47.87
2023-01-17T06:47:03.741Z,47.30
2023-01-17T06:49:41.817Z,49.87
2023-01-17T06:52:10.665Z,49.40
2023-01-17T06:54:39.151Z,55.73
2023-01-17T06:57:06.424Z,49.67
2023-01-17T06:59:36.362Z,47.97
2023-01-17T07:02:06.495Z,41.07
2023-01-17T07:04:36.081Z,37.87
2023-01-17T07:07:05.012Z,38.20
2023-01-17T07:09:34.957Z,36.40
2023-01-17T07:12:05.042Z,32.67
2023-01-17T07:14:34.666Z,41.10
2023-01-17T07:17:06.986Z,39.80
2023-01-17T07:19:35.265Z,39.27
2023-01-17T07:22:04.640Z,39.07
2023-01-17T07:24:41.245Z,40.70
2023-01-17T07:27:09.858Z,40.70
2023-01-17T07:29:40.866Z,43.10
2023-01-17T07:32:19.025Z,34.87
2023-01-17T07:34:47.900Z,34.00
2023-01-17T07:37:18.670Z,38.07
2023-01-17T07:39:48.651Z,34.17
2023-01-17T07:42:18.215Z,34.00
2023-01-17T07:44:46.762Z,40.70
2023-01-17T07:47:14.170Z,36.60
2023-01-17T07:49:53.445Z,35.20
2023-01-17T07:52:22.014Z,36.87
2023-01-17T07:54:50.264Z,37.93
2023-01-17T07:57:22.439Z,36.93
2023-01-17T07:59:53.694Z,39.50
2023-01-17T08:02:28.054Z,40.00
2023-01-17T08:04:57.440Z,34.37
2023-01-17T08:07:27.620Z,34.73
2023-01-17T08:09:56.809Z,28.60
2023-01-17T08:12:26.654Z,23.90
2023-01-17T08:14:54.100Z,21.80
2023-01-17T08:17:22.424Z,23.03
2023-01-17T08:19:53.808Z,17.40
2023-01-17T08:22:22.559Z,20.27
2023-01-17T08:24:51.420Z,16.20
2023-01-17T08:27:22.825Z,19.03
2023-01-17T08:29:52.579Z,17.20
2023-01-17T08:32:25.198Z,11.17
2023-01-17T08:34:53.874Z,13.63
2023-01-17T08:37:22.816Z,11.17
2023-01-17T08:40:01.124Z,14.70
2023-01-17T08:42:30.041Z,17.17
2023-01-17T08:44:58.912Z,15.13
2023-01-17T08:47:28.619Z,13.10
2023-01-17T08:50:00.412Z,15.03
2023-01-17T08:52:29.127Z,15.50
2023-01-17T08:55:05.287Z,16.50
2023-01-17T08:57:35.980Z,15.97
2023-01-17T09:00:08.341Z,18.90
2023-01-17T09:02:36.790Z,17.83
2023-01-17T09:05:06.455Z,21.10
2023-01-17T09:07:35.550Z,22.53
2023-01-17T09:10:04.445Z,27.07
2023-01-17T09:12:37.376Z,30.73
2023-01-17T09:17:48.074Z,7.50
2023-01-17T09:20:16.965Z,16.70
2023-01-17T09:22:47.471Z,17.83
2023-01-17T09:25:18.496Z,22.87
2023-01-17T09:27:49.335Z,23.57
2023-01-17T09:30:18.707Z,27.20
2023-01-17T09:33:00.566Z,25.07
2023-01-17T09:35:31.507Z,24.03
2023-01-17T09:37:58.643Z,27.43
2023-01-17T09:40:29.860Z,26.17
2023-01-17T09:43:18.929Z,19.83
2023-01-17T09:45:47.682Z,21.83
2023-01-17T09:48:30.580Z,25.57
2023-01-17T09:51:33.475Z,19.87
2023-01-17T09:54:03.920Z,18.93
2023-01-17T09:56:36.086Z,17.90
2023-01-17T09:59:35.328Z,16.77
2023-01-17T10:02:33.932Z,15.13
2023-01-17T10:08:59.362Z,11.87
2023-01-17T10:12:06.096Z,11.60
2023-01-17T10:14:53.812Z,10.40
2023-01-17T10:17:41.414Z,10.37
2023-01-17T10:20:52.702Z,9.30
2023-01-17T10:23:45.396Z,7.10
2023-01-17T10:26:31.258Z,8.97
2023-01-17T10:29:06.479Z,7.53
2023-01-17T10:31:51.826Z,7.80
2023-01-17T10:35:00.440Z,6.53
2023-01-17T10:38:14.777Z,5.03
2023-01-17T10:40:51.462Z,5.77
2023-01-17T10:43:35.937Z,8.07
2023-01-17T10:46:16.423Z,4.77
2023-01-17T10:48:49.580Z,5.97
2023-01-17T10:52:08.957Z,5.47
2023-01-17T10:55:30.558Z,6.93
2023-01-17T10:57:59.722Z,4.60
2023-01-17T11:00:57.885Z,5.93
2023-01-17T11:03:28.362Z,5.30
2023-01-17T11:06:17.889Z,4.80
2023-01-17T11:09:12.700Z,4.83
2023-01-17T11:11:58.641Z,5.20
2023-01-17T11:14:30.512Z,6.70
2023-01-17T11:17:10.272Z,5.67
2023-01-17T11:19:40.402Z,4.90
2023-01-17T11:22:16.448Z,5.30
2023-01-17T11:24:56.063Z,7.50
2023-01-17T11:27:41.104Z,5.47
2023-01-17T11:30:32.117Z,4.87
2023-01-17T11:33:26.958Z,6.20
2023-01-17T11:36:03.006Z,5.13
2023-01-17T11:38:31.728Z,5.80
2023-01-17T11:41:22.471Z,5.73
2023-01-17T11:44:01.240Z,6.03
2023-01-17T11:46:30.486Z,8.30
2023-01-17T11:49:04.903Z,6.30
2023-01-17T11:51:40.353Z,6.53
2023-01-17T11:54:42.642Z,7.80
2023-01-17T11:57:32.583Z,7.37
2023-01-17T12:00:41.577Z,7.33
2023-01-17T12:03:48.325Z,6.40
2023-01-17T12:06:56.232Z,7.73
2023-01-17T12:09:51.562Z,8.07
2023-01-17T12:12:58.153Z,7.53
2023-01-17T12:15:40.597Z,7.97
2023-01-17T12:18:35.297Z,7.67
2023-01-17T12:21:44.507Z,7.03
2023-01-17T12:24:55.733Z,8.27
2023-01-17T12:28:15.891Z,8.20
2023-01-17T12:31:08.758Z,7.37
2023-01-17T12:37:07.256Z,5.87
2023-01-17T12:39:54.952Z,6.90
2023-01-17T12:42:36.178Z,7.80
2023-01-17T12:45:16.655Z,5.20
2023-01-17T12:48:20.181Z,7.70
2023-01-17T12:51:31.053Z,9.10
2023-01-17T12:54:13.621Z,8.37
2023-01-17T12:57:06.741Z,10.03
2023-01-17T13:00:31.535Z,7.97
2023-01-17T13:03:42.923Z,9.23
2023-01-17T13:06:23.385Z,12.63
2023-01-17T13:08:53.624Z,10.27
2023-01-17T13:11:40.242Z,7.93
2023-01-17T13:14:12.858Z,7.80
2023-01-17T13:17:13.482Z,6.73
2023-01-17T13:19:52.902Z,7.13
2023-01-17T13:22:28.571Z,10.30
2023-01-17T13:28:04.313Z,7.87
2023-01-17T13:30:52.951Z,14.43
2023-01-17T13:33:48.045Z,12.73
2023-01-17T13:36:43.109Z,11.33
2023-01-17T13:39:40.746Z,10.80
2023-01-17T13:42:45.706Z,9.70
2023-01-17T13:45:23.533Z,8.23
2023-01-17T13:47:54.532Z,9.63
2023-01-17T13:50:51.859Z,9.23
2023-01-17T13:53:40.451Z,9.60
2023-01-17T13:56:32.129Z,9.37
2023-01-17T13:59:06.486Z,9.80
2023-01-17T14:01:53.644Z,8.87
2023-01-17T14:04:29.443Z,11.23
2023-01-17T14:07:06.517Z,8.93
2023-01-17T14:09:47.853Z,9.90
2023-01-17T14:12:47.213Z,13.13
2023-01-17T14:15:31.295Z,13.80
2023-01-17T14:18:05.893Z,21.93
2023-01-17T14:20:48.431Z,19.03
2023-01-17T14:24:13.557Z,20.00
2023-01-17T14:26:58.769Z,19.37
2023-01-17T14:30:09.161Z,22.17
2023-01-17T14:32:41.473Z,20.07
2023-01-17T14:35:26.373Z,19.30
2023-01-17T14:37:58.418Z,19.83
2023-01-17T14:40:34.099Z,18.27
2023-01-17T14:43:14.715Z,17.87
2023-01-17T14:45:44.233Z,17.63
2023-01-17T14:48:20.935Z,18.93
2023-01-17T14:51:03.477Z,19.00
2023-01-17T14:53:34.321Z,18.93
2023-01-17T14:56:25.826Z,20.63
2023-01-17T14:59:17.758Z,20.53
2023-01-17T15:02:08.531Z,20.50
2023-01-17T15:04:41.805Z,23.57
2023-01-17T15:07:17.151Z,21.17
2023-01-17T15:09:45.647Z,16.50
2023-01-17T15:12:15.909Z,19.43
2023-01-17T15:14:47.638Z,17.30
2023-01-17T15:17:25.995Z,16.80
2023-01-17T15:20:08.371Z,16.77
2023-01-17T15:22:38.652Z,16.27
2023-01-17T15:25:12.173Z,14.50
2023-01-17T15:27:40.776Z,16.10
2023-01-17T15:30:14.660Z,15.67
2023-01-17T15:32:49.082Z,13.97
2023-01-17T15:35:22.631Z,14.10
2023-01-17T15:37:59.233Z,13.67
2023-01-17T15:40:28.740Z,16.40
2023-01-17T15:43:01.858Z,12.33
2023-01-17T15:45:34.511Z,14.23
2023-01-17T15:48:37.080Z,14.83
2023-01-17T15:51:10.632Z,16.63
2023-01-17T15:53:45.619Z,12.87
2023-01-17T15:56:50.337Z,13.03
2023-01-17T16:00:02.624Z,10.73
2023-01-17T16:03:12.097Z,11.70
2023-01-17T16:05:45.957Z,8.83
2023-01-17T16:08:32.530Z,10.80
2023-01-17T16:11:10.024Z,10.57
2023-01-17T16:13:42.521Z,11.93
2023-01-17T16:16:39.828Z,10.27
2023-01-17T16:19:09.813Z,10.43
2023-01-17T16:21:37.950Z,11.20
2023-01-17T16:24:09.944Z,11.53
2023-01-17T16:26:36.962Z,13.37
2023-01-17T16:29:05.160Z,9.60
2023-01-17T16:31:34.493Z,10.40
2023-01-17T16:34:02.504Z,12.07
2023-01-17T16:36:35.394Z,11.13
2023-01-17T16:39:07.127Z,10.10
2023-01-17T16:41:37.578Z,11.27
2023-01-17T16:44:06.721Z,11.70
2023-01-17T16:46:38.870Z,9.73
2023-01-17T16:49:09.145Z,11.93
2023-01-17T16:51:38.642Z,12.33
2023-01-17T16:54:09.408Z,11.83
2023-01-17T16:56:38.808Z,9.70
2023-01-17T16:59:08.761Z,8.20
2023-01-17T17:01:36.038Z,7.30
2023-01-17T17:04:05.633Z,7.00
2023-01-17T17:06:35.340Z,7.27
2023-01-17T17:09:04.777Z,8.73
2023-01-17T17:11:32.905Z,8.57
2023-01-17T17:14:03.610Z,9.40
2023-01-17T17:16:33.066Z,9.43
2023-01-17T17:19:05.322Z,11.57
2023-01-17T17:21:35.596Z,15.37
2023-01-17T17:24:04.847Z,13.07
2023-01-17T17:26:40.079Z,15.33
2023-01-17T17:29:29.878Z,11.43
2023-01-17T17:31:57.262Z,13.97
2023-01-17T17:34:27.800Z,17.57
2023-01-17T17:36:58.234Z,14.10
2023-01-17T17:39:28.888Z,15.97
2023-01-17T17:41:56.257Z,17.23
2023-01-17T17:44:25.172Z,20.03
2023-01-17T17:46:54.729Z,11.27
2023-01-17T17:49:26.267Z,16.43
2023-01-17T17:51:54.625Z,18.30
2023-01-17T17:54:22.374Z,19.30
2023-01-17T17:56:49.979Z,17.87
2023-01-17T17:59:19.921Z,16.17
2023-01-17T18:01:47.871Z,17.93
2023-01-17T18:04:15.141Z,16.57
2023-01-17T18:06:42.437Z,15.97
2023-01-17T18:09:11.095Z,14.67
2023-01-17T18:11:40.907Z,13.63
2023-01-17T18:14:11.559Z,14.10
2023-01-17T18:16:42.318Z,13.70
2023-01-17T18:19:22.141Z,14.47
2023-01-17T18:21:51.464Z,14.83
2023-01-17T18:24:24.056Z,14.20
2023-01-17T18:26:57.314Z,15.20
2023-01-17T18:29:26.512Z,17.00
2023-01-17T18:31:54.781Z,16.77
2023-01-17T18:34:29.491Z,14.27
2023-01-17T18:36:57.107Z,14.77
2023-01-17T18:39:30.320Z,14.27
2023-01-17T18:41:58.477Z,14.57
2023-01-17T18:44:27.775Z,14.53
2023-01-17T18:46:55.175Z,14.33
2023-01-17T18:49:22.927Z,15.53
2023-01-17T18:51:51.742Z,16.13
2023-01-17T18:54:21.056Z,14.83
2023-01-17T18:56:48.749Z,14.23
2023-01-17T18:59:18.576Z,12.97
2023-01-17T19:01:46.012Z,15.40
2023-01-17T19:04:15.232Z,16.27
2023-01-17T19:06:45.537Z,13.30
2023-01-17T19:09:14.242Z,13.97
2023-01-17T19:11:43.491Z,11.10
2023-01-17T19:14:11.172Z,15.97
2023-01-17T19:16:41.707Z,11.37
2023-01-17T19:19:12.946Z,11.33
2023-01-17T19:21:40.401Z,12.20
2023-01-17T19:24:08.412Z,12.67
2023-01-17T19:26:36.096Z,12.80
2023-01-17T19:29:05.143Z,14.67
2023-01-17T19:31:36.100Z,13.93
2023-01-17T19:34:03.632Z,12.60
2023-01-17T19:36:36.468Z,12.70
2023-01-17T19:39:06.825Z,14.40
2023-01-17T19:41:37.258Z,17.53
2023-01-17T19:44:09.731Z,20.97
2023-01-17T19:46:37.746Z,18.17
2023-01-17T19:49:08.199Z,13.90
2023-01-17T19:51:36.576Z,14.53
2023-01-17T19:54:05.501Z,13.33
2023-01-17T19:56:32.669Z,12.53
2023-01-17T19:59:01.973Z,12.50
2023-01-17T20:01:32.633Z,12.40
2023-01-17T20:04:01.541Z,10.27
2023-01-17T20:06:31.384Z,11.90
2023-01-17T20:08:58.731Z,9.97
2023-01-17T20:11:27.623Z,11.50
2023-01-17T20:13:57.458Z,8.33
2023-01-17T20:16:26.360Z,10.90
2023-01-17T20:18:53.923Z,10.90
2023-01-17T20:21:23.605Z,10.43
2023-01-17T20:23:52.676Z,9.43
2023-01-17T20:26:29.724Z,12.70
2023-01-17T20:28:57.529Z,11.83
2023-01-17T20:31:26.021Z,12.93
2023-01-17T20:33:55.896Z,12.53
2023-01-17T20:36:26.186Z,10.13
2023-01-17T20:38:54.754Z,14.83
2023-01-17T20:41:30.292Z,13.10
2023-01-17T20:43:59.331Z,22.37
2023-01-17T20:46:29.775Z,20.27
2023-01-17T20:48:58.716Z,22.43
2023-01-17T20:51:28.402Z,25.00
2023-01-17T20:54:01.321Z,15.60
2023-01-17T20:56:34.908Z,15.83
2023-01-17T20:59:06.268Z,19.60
2023-01-17T21:01:34.563Z,27.47
2023-01-17T21:04:02.235Z,23.70
2023-01-17T21:06:29.697Z,24.30
2023-01-17T21:08:56.981Z,22.83
2023-01-17T21:11:27.907Z,25.83
2023-01-17T21:13:55.177Z,16.63
2023-01-17T21:16:23.256Z,16.97
2023-01-17T21:18:52.140Z,15.20
2023-01-17T21:21:25.672Z,14.33
2023-01-17T21:23:58.133Z,21.87
2023-01-17T21:26:27.632Z,16.50
2023-01-17T21:28:55.356Z,13.47
2023-01-17T21:31:26.680Z,19.77
2023-01-17T21:33:58.340Z,21.17
2023-01-17T21:36:32.710Z,30.10
2023-01-17T21:39:04.995Z,22.50
2023-01-17T21:41:35.608Z,19.63
2023-01-17T21:44:08.851Z,13.03
2023-01-17T21:46:40.753Z,17.80
2023-01-17T21:49:11.925Z,15.27
2023-01-17T21:51:53.412Z,28.83
2023-01-17T21:54:44.923Z,21.60
2023-01-17T21:57:32.053Z,18.87
2023-01-17T21:59:59.627Z,16.80
2023-01-17T22:02:26.815Z,19.77
2023-01-17T22:04:55.316Z,19.60
2023-01-17T22:07:23.327Z,21.40
2023-01-17T22:09:50.467Z,18.93
2023-01-17T22:12:17.892Z,17.20
2023-01-17T22:14:45.186Z,18.83
2023-01-17T22:17:12.418Z,17.90
2023-01-17T22:19:39.368Z,22.13
2023-01-17T22:22:06.456Z,21.53
2023-01-17T22:24:33.752Z,27.03
2023-01-17T22:27:01.027Z,24.63
2023-01-17T22:29:28.556Z,24.67
2023-01-17T22:31:56.016Z,19.10
2023-01-17T22:34:23.226Z,21.10
2023-01-17T22:36:50.655Z,21.20
2023-01-17T22:39:17.939Z,20.17
2023-01-17T22:41:45.202Z,19.43
2023-01-17T22:44:12.737Z,19.80
2023-01-17T22:46:41.566Z,19.60
2023-01-17T22:49:13.520Z,19.47
2023-01-17T22:51:40.727Z,18.63
2023-01-17T22:54:08.092Z,21.77
2023-01-17T22:56:35.905Z,21.43
2023-01-17T22:59:03.455Z,17.73
2023-01-17T23:01:33.234Z,15.90
2023-01-17T23:04:03.239Z,15.97
2023-01-17T23:06:31.726Z,13.90
2023-01-17T23:09:02.690Z,13.17
2023-01-17T23:11:39.877Z,12.70
2023-01-17T23:14:27.702Z,13.37
2023-01-17T23:17:15.682Z,14.73
2023-01-17T23:19:52.124Z,14.50
2023-01-17T23:22:24.607Z,15.20
2023-01-17T23:24:59.003Z,15.00
2023-01-17T23:27:57.138Z,13.57
2023-01-17T23:30:29.844Z,7.23
2023-01-17T23:33:02.523Z,9.80
2023-01-17T23:35:32.629Z,11.43
2023-01-17T23:38:19.202Z,19.50
2023-01-17T23:41:07.069Z,15.87
2023-01-17T23:43:35.401Z,21.57
2023-01-17T23:46:04.356Z,20.07
2023-01-17T23:48:31.886Z,19.80
2023-01-17T23:51:01.170Z,17.30
2023-01-17T23:53:28.433Z,23.83
2023-01-17T23:55:57.238Z,37.03
2023-01-17T23:58:26.812Z,40.27
